createdAt,value
2019-04-03T00:00:54.586Z,26.90
2019-04-03T00:03:25.787Z,21.12
2019-04-03T00:05:57.033Z,22.15
2019-04-03T00:08:28.926Z,25.97
2019-04-03T00:11:00.242Z,25.62
2019-04-03T00:13:33.418Z,29.57
2019-04-03T00:16:06.307Z,24.87
2019-04-03T00:18:37.502Z,26.82
2019-04-03T00:21:08.906Z,27.90
2019-04-03T00:23:40.079Z,22.10
2019-04-03T00:26:11.312Z,31.07
2019-04-03T00:28:42.505Z,25.60
2019-04-03T00:31:13.734Z,23.15
2019-04-03T00:33:45.106Z,22.13
2019-04-03T00:36:16.751Z,22.00
2019-04-03T00:38:48.003Z,24.70
2019-04-03T00:41:19.288Z,21.97
2019-04-03T00:43:50.622Z,21.57
2019-04-03T00:46:22.802Z,26.33
2019-04-03T00:48:55.642Z,24.55
2019-04-03T00:51:28.505Z,29.02
2019-04-03T00:54:01.985Z,20.30
2019-04-03T00:56:33.285Z,26.50
2019-04-03T00:59:04.466Z,25.85
2019-04-03T01:01:35.651Z,27.98
2019-04-03T01:04:06.872Z,22.98
2019-04-03T01:06:38.062Z,22.40
2019-04-03T01:09:09.451Z,24.25
2019-04-03T01:11:40.658Z,22.62
2019-04-03T01:14:12.003Z,31.62
2019-04-03T01:16:45.984Z,23.35
2019-04-03T01:19:16.334Z,28.20
2019-04-03T01:21:50.619Z,25.45
2019-04-03T01:24:32.161Z,22.62
2019-04-03T01:27:04.330Z,23.40
2019-04-03T01:29:56.339Z,22.58
2019-04-03T01:32:27.584Z,16.85
2019-04-03T01:35:11.275Z,19.45
2019-04-03T01:37:58.590Z,22.62
2019-04-03T01:40:34.498Z,20.70
2019-04-03T01:43:09.089Z,22.00
2019-04-03T01:45:57.336Z,21.35
2019-04-03T01:48:30.341Z,22.95
2019-04-03T01:51:09.608Z,20.27
2019-04-03T01:53:53.214Z,20.57
2019-04-03T01:56:31.860Z,27.45
2019-04-03T01:59:20.001Z,24.05
2019-04-03T02:02:20.809Z,22.15
2019-04-03T02:05:14.042Z,24.02
2019-04-03T02:08:07.992Z,23.55
2019-04-03T02:10:49.223Z,19.40
2019-04-03T02:13:32.143Z,24.63
2019-04-03T02:16:05.986Z,27.42
2019-04-03T02:19:07.666Z,20.95
2019-04-03T02:21:38.857Z,21.45
2019-04-03T02:24:11.371Z,20.35
2019-04-03T02:26:42.657Z,20.52
2019-04-03T02:29:13.953Z,25.50
2019-04-03T02:31:45.334Z,22.25
2019-04-03T02:34:16.812Z,19.80
2019-04-03T02:36:48.047Z,17.98
2019-04-03T02:39:19.415Z,21.20
2019-04-03T02:41:50.632Z,20.30
2019-04-03T02:44:21.812Z,25.43
2019-04-03T02:46:53.196Z,26.77
2019-04-03T02:49:25.625Z,18.82
2019-04-03T02:51:57.655Z,24.32
2019-04-03T02:54:29.796Z,24.35
2019-04-03T02:57:01.322Z,20.35
2019-04-03T02:59:32.637Z,23.02
2019-04-03T03:02:03.883Z,23.95
2019-04-03T03:04:35.165Z,24.55
2019-04-03T03:07:06.476Z,23.98
2019-04-03T03:09:37.799Z,23.47
2019-04-03T03:12:09.061Z,16.65
2019-04-03T03:14:40.699Z,21.50
2019-04-03T03:17:12.396Z,23.67
2019-04-03T03:19:43.710Z,21.15
2019-04-03T03:22:18.067Z,20.35
2019-04-03T03:24:48.288Z,18.35
2019-04-03T03:27:19.512Z,20.20
2019-04-03T03:29:50.690Z,20.72
2019-04-03T03:32:31.571Z,19.62
2019-04-03T03:35:07.669Z,20.08
2019-04-03T03:37:28.102Z,18.75
2019-04-03T03:39:59.720Z,20.82
2019-04-03T03:42:32.171Z,20.45
2019-04-03T03:45:04.341Z,20.35
2019-04-03T03:47:37.185Z,14.50
2019-04-03T03:50:09.562Z,16.07
2019-04-03T03:52:40.801Z,19.55
2019-04-03T03:55:12.483Z,20.30
2019-04-03T03:57:43.923Z,21.60
2019-04-03T04:00:17.028Z,19.42
2019-04-03T04:02:48.253Z,19.37
2019-04-03T04:05:22.183Z,18.87
2019-04-03T04:07:53.503Z,17.20
2019-04-03T04:10:26.657Z,19.73
2019-04-03T04:12:59.610Z,16.23
2019-04-03T04:15:31.652Z,22.15
2019-04-03T04:18:03.951Z,19.25
2019-04-03T04:20:44.457Z,19.65
2019-04-03T04:23:15.677Z,21.87
2019-04-03T04:26:01.616Z,23.95
2019-04-03T04:28:57.011Z,16.93
2019-04-03T04:31:21.787Z,21.25
2019-04-03T04:33:52.998Z,15.93
2019-04-03T04:36:24.956Z,15.75
2019-04-03T04:38:57.918Z,18.73
2019-04-03T04:41:29.248Z,14.47
2019-04-03T04:44:01.151Z,16.27
2019-04-03T04:46:32.331Z,16.37
2019-04-03T04:49:03.553Z,23.07
2019-04-03T04:51:34.747Z,21.23
2019-04-03T04:54:05.937Z,18.45
2019-04-03T04:56:37.794Z,19.02
2019-04-03T04:59:09.811Z,20.45
2019-04-03T05:01:41.028Z,16.02
2019-04-03T05:04:15.040Z,15.78
2019-04-03T05:06:45.166Z,14.00
2019-04-03T05:09:16.341Z,27.35
2019-04-03T05:11:47.581Z,16.32
2019-04-03T05:14:18.801Z,12.90
2019-04-03T05:16:50.171Z,9.70
2019-04-03T05:19:21.390Z,10.05
2019-04-03T05:21:53.504Z,7.83
2019-04-03T05:24:24.688Z,11.20
2019-04-03T05:26:55.972Z,12.33
2019-04-03T05:29:27.583Z,20.23
2019-04-03T05:31:59.063Z,14.90
2019-04-03T05:34:30.349Z,17.07
2019-04-03T05:37:01.756Z,13.72
2019-04-03T05:39:32.934Z,17.10
2019-04-03T05:42:04.166Z,12.65
2019-04-03T05:44:35.597Z,14.40
2019-04-03T05:47:08.110Z,11.70
2019-04-03T05:49:39.767Z,10.80
2019-04-03T05:52:10.930Z,10.23
2019-04-03T05:54:44.374Z,9.85
2019-04-03T05:57:15.485Z,15.78
2019-04-03T05:59:59.163Z,11.20
2019-04-03T06:02:21.925Z,10.75
2019-04-03T06:04:53.012Z,17.98
2019-04-03T06:07:24.218Z,10.75
2019-04-03T06:09:58.493Z,17.37
2019-04-03T06:12:28.552Z,10.08
2019-04-03T06:14:59.821Z,12.68
2019-04-03T06:17:31.063Z,11.65
2019-04-03T06:20:02.266Z,12.45
2019-04-03T06:22:33.501Z,15.70
2019-04-03T06:25:05.098Z,12.53
2019-04-03T06:27:36.427Z,13.32
2019-04-03T06:30:07.803Z,17.05
2019-04-03T06:32:40.026Z,12.75
2019-04-03T06:35:13.267Z,14.20
2019-04-03T06:37:44.174Z,13.40
2019-04-03T06:40:15.416Z,13.72
2019-04-03T06:42:46.652Z,11.73
2019-04-03T06:45:18.180Z,12.47
2019-04-03T06:47:49.378Z,12.23
2019-04-03T06:50:20.564Z,13.32
2019-04-03T06:52:53.035Z,14.40
2019-04-03T06:55:25.568Z,19.62
2019-04-03T06:57:57.417Z,15.80
2019-04-03T07:00:28.877Z,14.40
2019-04-03T07:03:01.505Z,17.95
2019-04-03T07:05:33.148Z,12.40
2019-04-03T07:08:05.867Z,16.65
2019-04-03T07:10:40.076Z,10.38
2019-04-03T07:13:10.184Z,14.07
2019-04-03T07:15:41.703Z,13.98
2019-04-03T07:18:13.108Z,12.88
2019-04-03T07:20:44.332Z,19.60
2019-04-03T07:23:15.526Z,17.73
2019-04-03T07:25:46.783Z,18.82
2019-04-03T07:28:18.006Z,13.25
2019-04-03T07:30:52.944Z,21.17
2019-04-03T07:33:23.482Z,15.03
2019-04-03T07:35:55.870Z,14.60
2019-04-03T07:38:27.067Z,15.40
2019-04-03T07:40:58.402Z,17.00
2019-04-03T07:43:29.803Z,9.43
2019-04-03T07:46:01.710Z,17.70
2019-04-03T07:48:34.079Z,12.00
2019-04-03T07:51:05.607Z,12.53
2019-04-03T07:53:36.853Z,18.02
2019-04-03T07:56:08.683Z,15.75
2019-04-03T07:58:40.009Z,15.30
2019-04-03T08:01:11.636Z,13.65
2019-04-03T08:03:43.085Z,12.63
2019-04-03T08:06:15.538Z,9.40
2019-04-03T08:08:46.726Z,8.75
2019-04-03T08:11:18.766Z,5.55
2019-04-03T08:13:51.247Z,8.60
2019-04-03T08:16:22.449Z,7.80
2019-04-03T08:18:53.776Z,5.85
2019-04-03T08:21:25.333Z,7.50
2019-04-03T08:23:56.648Z,7.40
2019-04-03T08:26:27.928Z,6.15
2019-04-03T08:29:01.731Z,6.17
2019-04-03T08:31:32.479Z,6.35
2019-04-03T08:34:14.875Z,5.90
2019-04-03T08:36:38.407Z,6.40
2019-04-03T08:39:09.506Z,7.33
2019-04-03T08:41:40.833Z,5.78
2019-04-03T08:44:11.987Z,5.67
2019-04-03T08:46:44.024Z,7.50
2019-04-03T08:49:15.502Z,5.85
2019-04-03T08:51:47.837Z,7.33
2019-04-03T08:54:19.505Z,4.75
2019-04-03T08:56:50.805Z,6.72
2019-04-03T08:59:22.195Z,9.33
2019-04-03T09:01:55.278Z,2.70
2019-04-03T09:04:26.522Z,7.75
2019-04-03T09:06:57.686Z,5.67
2019-04-03T09:09:30.083Z,4.42
2019-04-03T09:12:02.444Z,4.80
2019-04-03T09:14:33.692Z,6.85
2019-04-03T09:17:05.257Z,6.92
2019-04-03T09:19:36.580Z,8.05
2019-04-03T09:22:07.949Z,6.28
2019-04-03T09:24:40.710Z,4.30
2019-04-03T09:27:12.192Z,5.90
2019-04-03T09:29:45.168Z,4.90
2019-04-03T09:32:16.946Z,2.98
2019-04-03T09:34:48.388Z,3.05
2019-04-03T09:37:20.790Z,6.28
2019-04-03T09:39:52.042Z,4.35
2019-04-03T09:42:23.282Z,3.98
2019-04-03T09:44:56.192Z,6.25
2019-04-03T09:47:28.406Z,6.67
2019-04-03T09:49:59.706Z,8.58
2019-04-03T09:52:39.950Z,7.45
2019-04-03T09:55:04.074Z,4.40
2019-04-03T09:57:35.373Z,10.48
2019-04-03T10:00:09.890Z,5.58
2019-04-03T10:02:40.307Z,5.92
2019-04-03T10:05:12.501Z,6.78
2019-04-03T10:07:45.457Z,5.67
2019-04-03T10:10:17.088Z,5.47
2019-04-03T10:12:49.139Z,4.03
2019-04-03T10:15:20.821Z,3.92
2019-04-03T10:17:52.001Z,6.30
2019-04-03T10:20:23.546Z,3.12
2019-04-03T10:22:56.356Z,3.70
2019-04-03T10:25:27.630Z,8.48
2019-04-03T10:27:58.987Z,4.70
2019-04-03T10:30:30.153Z,3.92
2019-04-03T10:33:01.344Z,3.98
2019-04-03T10:35:32.788Z,5.50
2019-04-03T10:38:04.169Z,6.67
2019-04-03T10:40:35.702Z,9.88
2019-04-03T10:43:06.892Z,8.83
2019-04-03T10:45:39.180Z,4.37
2019-04-03T10:48:10.567Z,8.33
2019-04-03T10:50:41.763Z,3.87
2019-04-03T10:53:13.098Z,5.87
2019-04-03T10:55:45.225Z,6.10
2019-04-03T10:58:16.797Z,7.35
2019-04-03T11:00:49.310Z,4.72
2019-04-03T11:03:20.667Z,6.45
2019-04-03T11:05:51.963Z,7.17
2019-04-03T11:08:23.144Z,4.92
2019-04-03T11:10:55.919Z,7.20
2019-04-03T11:13:29.113Z,6.28
2019-04-03T11:16:00.456Z,9.05
2019-04-03T11:18:31.628Z,7.53
2019-04-03T11:21:02.859Z,9.93
2019-04-03T11:23:38.986Z,8.45
2019-04-03T11:26:06.973Z,8.95
2019-04-03T11:28:39.074Z,6.20
2019-04-03T11:31:10.734Z,6.30
2019-04-03T11:33:45.867Z,7.72
2019-04-03T11:36:16.067Z,7.45
2019-04-03T11:38:47.754Z,7.05
2019-04-03T11:41:21.414Z,4.05
2019-04-03T11:43:52.260Z,4.42
2019-04-03T11:46:23.419Z,9.58
2019-04-03T11:48:54.631Z,7.67
2019-04-03T11:51:28.927Z,6.50
2019-04-03T11:53:58.956Z,6.75
2019-04-03T11:56:30.249Z,5.03
2019-04-03T11:59:01.444Z,4.20
2019-04-03T12:01:33.145Z,5.72
2019-04-03T12:04:04.925Z,7.62
2019-04-03T12:06:36.442Z,4.12
2019-04-03T12:09:08.391Z,4.03
2019-04-03T12:11:40.100Z,3.83
2019-04-03T12:14:11.691Z,6.22
2019-04-03T12:16:43.031Z,4.78
2019-04-03T12:19:14.398Z,4.45
2019-04-03T12:21:45.629Z,8.45
2019-04-03T12:24:17.111Z,7.72
2019-04-03T12:26:49.521Z,6.47
2019-04-03T12:29:22.737Z,3.42
2019-04-03T12:31:54.388Z,3.98
2019-04-03T12:34:25.584Z,6.25
2019-04-03T12:36:56.963Z,4.37
2019-04-03T12:39:28.368Z,2.22
2019-04-03T12:42:00.463Z,6.65
2019-04-03T12:44:31.997Z,3.72
2019-04-03T12:47:06.933Z,3.70
2019-04-03T12:49:36.189Z,4.05
2019-04-03T12:52:07.513Z,8.15
2019-04-03T12:54:38.728Z,8.48
2019-04-03T12:57:09.940Z,8.85
2019-04-03T12:59:41.363Z,4.83
2019-04-03T13:02:12.569Z,5.10
2019-04-03T13:04:43.826Z,3.02
2019-04-03T13:07:15.162Z,4.87
2019-04-03T13:09:46.728Z,5.33
2019-04-03T13:12:20.621Z,8.08
2019-04-03T13:14:51.176Z,5.40
2019-04-03T13:17:22.470Z,4.33
2019-04-03T13:19:53.647Z,6.25
2019-04-03T13:22:24.883Z,4.65
2019-04-03T13:24:56.460Z,5.60
2019-04-03T13:27:30.682Z,8.45
2019-04-03T13:30:01.584Z,5.22
2019-04-03T13:32:32.886Z,2.87
2019-04-03T13:35:05.480Z,3.95
2019-04-03T13:37:39.069Z,4.75
2019-04-03T13:40:10.250Z,4.37
2019-04-03T13:42:42.284Z,7.20
2019-04-03T13:45:13.664Z,4.53
2019-04-03T13:47:47.003Z,7.22
2019-04-03T13:50:21.630Z,19.25
2019-04-03T13:52:52.371Z,5.65
2019-04-03T13:55:23.733Z,4.03
2019-04-03T13:57:56.093Z,8.45
2019-04-03T14:00:27.710Z,2.27
2019-04-03T14:02:59.280Z,2.70
2019-04-03T14:05:32.865Z,4.87
2019-04-03T14:08:06.044Z,6.37
2019-04-03T14:10:37.349Z,2.47
2019-04-03T14:13:11.860Z,3.27
2019-04-03T14:15:42.242Z,4.58
2019-04-03T14:18:14.887Z,4.30
2019-04-03T14:20:46.128Z,8.93
2019-04-03T14:23:17.311Z,4.78
2019-04-03T14:25:49.260Z,6.65
2019-04-03T14:28:20.868Z,3.30
2019-04-03T14:30:52.791Z,4.15
2019-04-03T14:33:25.500Z,4.15
2019-04-03T14:35:57.213Z,6.80
2019-04-03T14:38:29.079Z,6.83
2019-04-03T14:41:00.816Z,7.17
2019-04-03T14:43:33.609Z,4.50
2019-04-03T14:46:06.533Z,3.90
2019-04-03T14:48:38.365Z,4.78
2019-04-03T14:51:11.752Z,3.98
2019-04-03T14:53:42.580Z,5.80
2019-04-03T14:56:17.315Z,8.10
2019-04-03T14:58:50.517Z,4.10
2019-04-03T15:01:23.949Z,9.30
2019-04-03T15:03:55.133Z,13.88
2019-04-03T15:06:26.732Z,9.88
2019-04-03T15:08:58.106Z,6.05
2019-04-03T15:11:29.584Z,9.95
2019-04-03T15:14:00.883Z,6.33
2019-04-03T15:16:32.321Z,2.05
2019-04-03T15:19:03.569Z,3.98
2019-04-03T15:21:36.459Z,5.17
2019-04-03T15:24:11.218Z,4.97
2019-04-03T15:26:42.145Z,6.33
2019-04-03T15:29:13.644Z,6.10
2019-04-03T15:31:46.687Z,3.75
2019-04-03T15:34:18.469Z,6.37
2019-04-03T15:36:51.521Z,6.97
2019-04-03T15:39:22.742Z,2.87
2019-04-03T15:41:54.229Z,5.05
2019-04-03T15:44:27.483Z,4.62
2019-04-03T15:46:59.238Z,3.60
2019-04-03T15:49:31.909Z,1.72
2019-04-03T15:52:04.324Z,4.28
2019-04-03T15:54:35.506Z,3.27
2019-04-03T15:57:07.076Z,4.15
2019-04-03T15:59:38.615Z,1.67
2019-04-03T16:02:12.045Z,3.55
2019-04-03T16:04:43.174Z,3.12
2019-04-03T16:07:14.400Z,1.82
2019-04-03T16:09:45.630Z,4.33
2019-04-03T16:12:16.877Z,2.62
2019-04-03T16:14:48.789Z,4.50
2019-04-03T16:17:21.213Z,4.85
2019-04-03T16:19:53.094Z,6.45
2019-04-03T16:22:24.854Z,3.90
2019-04-03T16:24:56.046Z,4.37
2019-04-03T16:27:29.232Z,4.90
2019-04-03T16:30:00.676Z,6.35
2019-04-03T16:32:33.864Z,6.20
2019-04-03T16:35:05.918Z,5.95
2019-04-03T16:37:38.458Z,4.15
2019-04-03T16:40:11.244Z,5.90
2019-04-03T16:42:43.256Z,3.72
2019-04-03T16:45:15.808Z,9.10
2019-04-03T16:47:47.057Z,5.53
2019-04-03T16:50:19.151Z,4.87
2019-04-03T16:52:50.743Z,4.75
2019-04-03T16:55:22.732Z,3.40
2019-04-03T16:57:55.411Z,4.05
2019-04-03T17:00:27.526Z,4.55
2019-04-03T17:02:58.845Z,3.83
2019-04-03T17:05:30.058Z,6.08
2019-04-03T17:08:01.294Z,6.90
2019-04-03T17:10:33.083Z,3.50
2019-04-03T17:13:04.318Z,2.45
2019-04-03T17:15:35.866Z,4.53
2019-04-03T17:18:07.249Z,2.95
2019-04-03T17:20:38.454Z,9.18
2019-04-03T17:23:12.791Z,8.20
2019-04-03T17:25:48.187Z,6.08
2019-04-03T17:28:15.542Z,7.20
2019-04-03T17:30:49.662Z,7.67
2019-04-03T17:33:19.684Z,6.47
2019-04-03T17:35:51.263Z,8.40
2019-04-03T17:38:22.956Z,7.12
2019-04-03T17:40:54.554Z,6.67
2019-04-03T17:43:26.230Z,5.40
2019-04-03T17:45:57.429Z,4.80
2019-04-03T17:48:31.057Z,7.60
2019-04-03T17:51:02.643Z,5.97
2019-04-03T17:53:34.865Z,2.80
2019-04-03T17:56:07.521Z,7.30
2019-04-03T17:58:38.706Z,8.25
2019-04-03T18:01:10.134Z,6.83
2019-04-03T18:03:41.350Z,9.03
2019-04-03T18:06:12.606Z,5.92
2019-04-03T18:08:45.116Z,8.38
2019-04-03T18:11:16.339Z,10.82
2019-04-03T18:13:48.744Z,8.88
2019-04-03T18:16:20.080Z,5.90
2019-04-03T18:18:51.652Z,9.88
2019-04-03T18:21:22.906Z,9.15
2019-04-03T18:23:54.397Z,10.58
2019-04-03T18:26:25.638Z,8.43
2019-04-03T18:28:56.883Z,11.03
2019-04-03T18:31:28.124Z,7.00
2019-04-03T18:33:59.394Z,9.00
2019-04-03T18:36:31.352Z,9.00
2019-04-03T18:39:03.985Z,5.20
2019-04-03T18:41:35.330Z,10.32
2019-04-03T18:44:06.517Z,9.35
2019-04-03T18:46:37.713Z,7.80
2019-04-03T18:49:08.971Z,6.55
2019-04-03T18:51:40.178Z,7.45
2019-04-03T18:54:12.135Z,12.98
2019-04-03T18:56:45.669Z,12.00
2019-04-03T18:59:16.617Z,7.72
2019-04-03T19:01:48.012Z,9.73
2019-04-03T19:04:19.607Z,16.10
2019-04-03T19:06:50.847Z,10.10
2019-04-03T19:09:22.318Z,9.70
2019-04-03T19:11:53.584Z,10.98
2019-04-03T19:14:27.499Z,10.48
2019-04-03T19:16:58.959Z,10.53
2019-04-03T19:19:30.276Z,9.05
2019-04-03T19:22:01.524Z,9.63
2019-04-03T19:24:32.771Z,9.25
2019-04-03T19:27:03.980Z,7.83
2019-04-03T19:29:36.274Z,13.28
2019-04-03T19:32:11.945Z,14.38
2019-04-03T19:34:41.540Z,10.00
2019-04-03T19:37:12.794Z,12.40
2019-04-03T19:39:44.052Z,10.78
2019-04-03T19:42:16.329Z,8.10
2019-04-03T19:44:49.194Z,11.35
2019-04-03T19:47:20.937Z,10.85
2019-04-03T19:49:52.228Z,8.35
2019-04-03T19:52:23.509Z,8.68
2019-04-03T19:54:54.849Z,10.20
2019-04-03T19:57:27.400Z,13.80
2019-04-03T20:00:01.060Z,8.63
2019-04-03T20:02:32.290Z,10.60
2019-04-03T20:05:03.606Z,13.18
2019-04-03T20:07:34.798Z,10.03
2019-04-03T20:10:07.345Z,12.85
2019-04-03T20:12:38.663Z,11.80
2019-04-03T20:15:09.997Z,15.20
2019-04-03T20:17:41.627Z,12.88
2019-04-03T20:20:12.950Z,11.38
2019-04-03T20:22:44.305Z,12.03
2019-04-03T20:25:15.614Z,11.53
2019-04-03T20:27:47.622Z,15.38
2019-04-03T20:30:20.315Z,8.00
2019-04-03T20:32:52.117Z,9.05
2019-04-03T20:35:23.454Z,6.37
2019-04-03T20:37:56.807Z,13.58
2019-04-03T20:40:28.041Z,7.70
2019-04-03T20:42:59.448Z,8.40
2019-04-03T20:45:30.709Z,14.07
2019-04-03T20:48:02.396Z,9.00
2019-04-03T20:50:33.960Z,9.80
2019-04-03T20:53:05.237Z,7.47
2019-04-03T20:55:36.531Z,10.48
2019-04-03T20:58:07.833Z,16.07
2019-04-03T21:00:39.075Z,15.72
2019-04-03T21:03:12.581Z,33.25
2019-04-03T21:05:44.398Z,17.77
2019-04-03T21:08:15.622Z,21.97
2019-04-03T21:10:46.910Z,32.70
2019-04-03T21:13:18.430Z,30.27
2019-04-03T21:15:54.114Z,25.88
2019-04-03T21:18:35.944Z,14.15
2019-04-03T21:21:17.696Z,13.48
2019-04-03T21:23:58.745Z,7.80
2019-04-03T21:26:39.797Z,9.73
2019-04-03T21:29:19.699Z,7.60
2019-04-03T21:32:06.273Z,14.43
2019-04-03T21:35:03.913Z,13.10
2019-04-03T21:37:41.675Z,10.20
2019-04-03T21:40:24.253Z,12.13
2019-04-03T21:43:02.316Z,20.95
2019-04-03T21:46:00.769Z,16.65
2019-04-03T21:48:39.597Z,11.85
2019-04-03T21:51:25.067Z,9.23
2019-04-03T21:54:05.043Z,11.65
2019-04-03T21:56:44.883Z,7.85
2019-04-03T21:59:23.120Z,13.32
2019-04-03T22:02:04.380Z,10.88
2019-04-03T22:04:41.872Z,6.10
2019-04-03T22:07:28.550Z,11.60
2019-04-03T22:10:21.929Z,10.20
2019-04-03T22:12:57.903Z,10.13
2019-04-03T22:15:34.884Z,10.03
2019-04-03T22:18:24.806Z,10.60
2019-04-03T22:21:12.693Z,12.90
2019-04-03T22:23:49.059Z,8.98
2019-04-03T22:26:24.182Z,10.53
2019-04-03T22:28:58.961Z,9.25
2019-04-03T22:31:35.263Z,7.25
2019-04-03T22:34:25.635Z,10.35
2019-04-03T22:37:04.480Z,13.50
2019-04-03T22:39:39.038Z,8.15
2019-04-03T22:42:11.206Z,11.60
2019-04-03T22:44:42.794Z,5.40
2019-04-03T22:47:14.162Z,6.08
2019-04-03T22:49:45.475Z,9.00
2019-04-03T22:52:16.749Z,7.03
2019-04-03T22:54:48.580Z,9.40
2019-04-03T22:57:20.217Z,9.58
2019-04-03T22:59:54.475Z,5.62
2019-04-03T23:02:24.809Z,7.42
2019-04-03T23:04:55.872Z,8.48
2019-04-03T23:07:27.102Z,5.22
2019-04-03T23:09:58.186Z,7.95
2019-04-03T23:12:29.669Z,8.00
2019-04-03T23:15:00.859Z,9.43
2019-04-03T23:17:32.227Z,4.75
2019-04-03T23:20:03.761Z,9.70
2019-04-03T23:22:35.376Z,11.48
2019-04-03T23:25:06.631Z,8.75
2019-04-03T23:27:38.215Z,12.10
2019-04-03T23:30:10.753Z,7.58
2019-04-03T23:32:46.102Z,10.48
2019-04-03T23:35:20.377Z,7.80
2019-04-03T23:37:50.523Z,11.05
2019-04-03T23:40:25.251Z,6.28
2019-04-03T23:42:58.004Z,10.78
2019-04-03T23:45:31.266Z,10.08
2019-04-03T23:48:02.788Z,10.18
2019-04-03T23:50:35.470Z,8.95
2019-04-03T23:53:06.759Z,6.67
2019-04-03T23:55:40.227Z,7.10
2019-04-03T23:58:12.372Z,11.30
